Time;durP1;ratioP1;P1;durP2;ratioP2;P2;SDS_P1;SDS_P2;PMS_P1;PMS_P2;Temp;Humidity;BMP_temperature;BMP_pressure;BME280_temperature;BME280_humidity;BME280_pressure;Samples;Min_cycle;Max_cycle;Signal;HPM_P1;HPM_P2
2024/01/10 00:01:55;;;;;;;;;;;-4.60;1.00;;;;;;5029210;28;19998;-77
2024/01/10 00:04:31;;;;;;;;;;;-4.50;1.00;;;;;;5018782;28;19912;-77
2024/01/10 00:07:07;;;;;;;;;;;-4.60;1.00;;;;;;5025121;28;19913;-77
2024/01/10 00:09:33;;;;;;;;;;;-4.50;1.00;;;;;;5029209;28;19913;-77
2024/01/10 00:11:58;;;;;;;;;;;-4.50;1.00;;;;;;5015397;28;19905;-77
2024/01/10 00:14:24;;;;;;;;;;;-4.50;1.00;;;;;;5028634;28;19912;-75
2024/01/10 00:16:50;;;;;;;;;;;-4.50;1.00;;;;;;5026577;28;20345;-75
2024/01/10 00:19:15;;;;;;;;;;;-4.60;1.00;;;;;;5024254;28;19984;-75
2024/01/10 00:21:41;;;;;;;;;;;-4.60;1.00;;;;;;5022180;28;19916;-76
2024/01/10 00:24:06;;;;;;;;;;;-4.60;1.00;;;;;;5020507;28;19992;-76
2024/01/10 00:26:37;;;;;;;;;;;-4.60;1.00;;;;;;5028380;28;19913;-76
2024/01/10 00:29:07;;;;;;;;;;;-4.60;1.00;;;;;;5020698;28;19936;-77
2024/01/10 00:31:43;;;;;;;;;;;-4.60;1.00;;;;;;5020869;28;19906;-77
2024/01/10 00:34:31;;;;;;;;;;;-4.60;1.00;;;;;;5015028;28;20352;-77
2024/01/10 00:37:01;;;;;;;;;;;-4.60;1.00;;;;;;5020150;28;20005;-77
2024/01/10 00:39:26;;;;;;;;;;;-4.60;1.00;;;;;;5022367;28;19932;-77
2024/01/10 00:41:55;;;;;;;;;;;-4.70;1.00;;;;;;5014743;28;19905;-77
2024/01/10 00:44:21;;;;;;;;;;;-4.70;1.00;;;;;;5017430;28;19918;-77
2024/01/10 00:47:01;;;;;;;;;;;-4.70;1.00;;;;;;5028240;28;19914;-77
2024/01/10 00:49:37;;;;;;;;;;;-4.70;1.00;;;;;;5014653;28;20008;-78
2024/01/10 00:52:13;;;;;;;;;;;-4.70;1.00;;;;;;5017293;28;19971;-78
2024/01/10 00:55:13;;;;;;;;;;;-4.70;1.00;;;;;;5018357;28;19947;-78
2024/01/10 00:58:01;;;;;;;;;;;-4.70;1.00;;;;;;5033654;28;19909;-78
2024/01/10 01:00:27;;;;;;;;;;;-4.80;1.00;;;;;;5023389;28;19905;-77
2024/01/10 01:03:07;;;;;;;;;;;-4.70;1.00;;;;;;5018854;28;19905;-78
2024/01/10 01:05:37;;;;;;;;;;;-4.70;1.00;;;;;;5021252;28;19913;-78
2024/01/10 01:08:03;;;;;;;;;;;-4.80;1.00;;;;;;5029164;28;20043;-78
2024/01/10 01:10:31;;;;;;;;;;;-4.80;1.00;;;;;;5031166;28;19920;-78
2024/01/10 01:12:56;;;;;;;;;;;-4.80;1.00;;;;;;5014351;28;19911;-78
2024/01/10 01:15:49;;;;;;;;;;;-4.80;1.00;;;;;;5020262;28;19996;-78
2024/01/10 01:18:19;;;;;;;;;;;-4.80;1.00;;;;;;5014528;28;19913;-78
2024/01/10 01:20:50;;;;;;;;;;;-4.80;1.00;;;;;;5014705;28;19920;-78
2024/01/10 01:23:15;;;;;;;;;;;-4.80;1.00;;;;;;5014294;28;19913;-78
2024/01/10 01:25:55;;;;;;;;;;;-4.80;1.00;;;;;;5019586;28;20253;-78
2024/01/10 01:28:21;;;;;;;;;;;-4.80;1.00;;;;;;5020275;28;20456;-76
2024/01/10 01:31:01;;;;;;;;;;;-4.80;1.00;;;;;;5034811;28;19956;-77
2024/01/10 01:33:38;;;;;;;;;;;-4.80;1.00;;;;;;5031448;28;19905;-77
2024/01/10 01:39:13;;;;;;;;;;;-4.90;1.00;;;;;;5022006;28;19956;-78
2024/01/10 01:41:49;;;;;;;;;;;-4.90;1.00;;;;;;5019488;28;19956;-77
2024/01/10 01:44:19;;;;;;;;;;;-4.90;1.00;;;;;;5025264;28;19905;-76
2024/01/10 01:47:19;;;;;;;;;;;-4.90;1.00;;;;;;5024729;28;19957;-76
2024/01/10 01:49:49;;;;;;;;;;;-4.90;1.00;;;;;;5019798;28;19905;-76
2024/01/10 01:52:31;;;;;;;;;;;-4.90;1.00;;;;;;5036329;28;19909;-76
2024/01/10 01:55:01;;;;;;;;;;;-4.90;1.00;;;;;;5024516;28;19948;-75
2024/01/10 01:57:55;;;;;;;;;;;-4.90;1.00;;;;;;5024816;28;20289;-76
2024/01/10 02:03:26;;;;;;;;;;;-4.90;1.00;;;;;;5019742;28;20320;-77
2024/01/10 02:06:13;;;;;;;;;;;-4.90;1.00;;;;;;5021497;28;19964;-78
2024/01/10 02:08:43;;;;;;;;;;;-4.90;1.00;;;;;;5024445;28;20003;-78
2024/01/10 02:11:25;;;;;;;;;;;-5.00;1.00;;;;;;5023865;28;19909;-78
2024/01/10 02:14:19;;;;;;;;;;;-5.00;1.00;;;;;;5021180;28;19917;-77
2024/01/10 02:16:49;;;;;;;;;;;-5.00;1.00;;;;;;5027356;28;19917;-76
2024/01/10 02:19:21;;;;;;;;;;;-5.00;1.00;;;;;;5024369;28;19915;-76
2024/01/10 02:21:47;;;;;;;;;;;-5.00;1.00;;;;;;5023874;28;19964;-76
2024/01/10 02:24:12;;;;;;;;;;;-5.10;1.00;;;;;;5030125;28;20372;-76
2024/01/10 02:26:50;;;;;;;;;;;-5.00;1.00;;;;;;5026752;28;19925;-76
2024/01/10 02:29:49;;;;;;;;;;;-5.00;1.00;;;;;;5032957;28;19913;-78
2024/01/10 02:32:25;;;;;;;;;;;-5.00;1.00;;;;;;5030602;28;19910;-78
2024/01/10 02:35:13;;;;;;;;;;;-5.00;1.00;;;;;;5016993;28;19912;-77
2024/01/10 02:37:52;;;;;;;;;;;-5.00;1.00;;;;;;5016981;28;20104;-78
2024/01/10 02:40:31;;;;;;;;;;;-5.00;1.00;;;;;;5019232;28;19913;-78
2024/01/10 02:43:01;;;;;;;;;;;-5.10;1.00;;;;;;5030857;28;19971;-77
2024/01/10 02:45:31;;;;;;;;;;;-5.10;1.00;;;;;;5035981;28;19909;-78
2024/01/10 02:48:19;;;;;;;;;;;-5.10;1.00;;;;;;5018563;28;19909;-78
2024/01/10 02:50:49;;;;;;;;;;;-5.10;1.00;;;;;;5028304;28;19912;-78
2024/01/10 02:53:19;;;;;;;;;;;-5.10;1.00;;;;;;5022642;28;19909;-78
2024/01/10 02:55:55;;;;;;;;;;;-5.20;1.00;;;;;;5029645;28;19917;-78
2024/01/10 02:58:31;;;;;;;;;;;-5.30;1.00;;;;;;5031354;28;19913;-78
2024/01/10 03:01:01;;;;;;;;;;;-5.30;1.00;;;;;;5026686;28;19910;-78
2024/01/10 03:03:49;;;;;;;;;;;-5.30;1.00;;;;;;5027002;28;19905;-79
2024/01/10 03:06:19;;;;;;;;;;;-5.30;1.00;;;;;;5030764;28;19917;-78
2024/01/10 03:09:01;;;;;;;;;;;-5.30;1.00;;;;;;5026693;28;19953;-78
2024/01/10 03:11:55;;;;;;;;;;;-5.30;1.00;;;;;;5033173;28;19908;-77
2024/01/10 03:14:32;;;;;;;;;;;-5.30;1.00;;;;;;5031696;28;20384;-75
2024/01/10 03:16:58;;;;;;;;;;;-5.30;1.00;;;;;;5034615;28;20386;-76
2024/01/10 03:19:23;;;;;;;;;;;-5.40;1.00;;;;;;5029452;28;20000;-76
2024/01/10 03:21:49;;;;;;;;;;;-5.40;1.00;;;;;;5023786;28;19913;-76
2024/01/10 03:24:19;;;;;;;;;;;-5.50;1.00;;;;;;5029648;28;19928;-75
2024/01/10 03:26:49;;;;;;;;;;;-5.50;1.00;;;;;;5029762;28;19916;-76
2024/01/10 03:29:19;;;;;;;;;;;-5.50;1.00;;;;;;5016102;28;19949;-75
2024/01/10 03:32:13;;;;;;;;;;;-5.50;1.00;;;;;;5029969;28;19905;-78
2024/01/10 03:37:49;;;;;;;;;;;-5.50;1.00;;;;;;5019025;28;19916;-78
2024/01/10 03:40:15;;;;;;;;;;;-5.60;1.00;;;;;;5026139;28;19916;-77
2024/01/10 03:42:55;;;;;;;;;;;-5.50;1.00;;;;;;5025239;28;19908;-78
2024/01/10 03:45:25;;;;;;;;;;;-5.50;1.00;;;;;;5016475;28;19913;-78
2024/01/10 03:48:01;;;;;;;;;;;-5.50;1.00;;;;;;5019034;28;19913;-78
2024/01/10 03:50:27;;;;;;;;;;;-5.50;1.00;;;;;;5015886;28;19905;-78
2024/01/10 03:53:13;;;;;;;;;;;-5.50;1.00;;;;;;5018730;28;19963;-78
2024/01/10 03:56:01;;;;;;;;;;;-5.50;1.00;;;;;;5015843;28;20051;-78
2024/01/10 03:58:31;;;;;;;;;;;-5.50;1.00;;;;;;5035508;28;19944;-78
2024/01/10 04:01:08;;;;;;;;;;;-5.40;1.00;;;;;;5033751;28;19944;-78
2024/01/10 04:03:34;;;;;;;;;;;-5.40;1.00;;;;;;5025513;28;19905;-78
2024/01/10 04:06:07;;;;;;;;;;;-5.40;1.00;;;;;;5031879;28;19909;-78
2024/01/10 04:08:33;;;;;;;;;;;-5.30;1.00;;;;;;5015917;28;19909;-78
2024/01/10 04:11:08;;;;;;;;;;;-5.30;1.00;;;;;;5028562;28;19921;-78
2024/01/10 04:13:44;;;;;;;;;;;-5.30;1.00;;;;;;5014781;28;19905;-78
2024/01/10 04:16:19;;;;;;;;;;;-5.30;1.00;;;;;;5015756;28;20010;-76
2024/01/10 04:18:45;;;;;;;;;;;-5.40;1.00;;;;;;5028543;28;19952;-76
2024/01/10 04:21:37;;;;;;;;;;;-5.40;1.00;;;;;;5021820;28;19913;-76
2024/01/10 04:24:25;;;;;;;;;;;-5.30;1.00;;;;;;5021496;28;19944;-76
2024/01/10 04:26:55;;;;;;;;;;;-5.30;1.00;;;;;;5026102;28;19959;-75
2024/01/10 04:29:31;;;;;;;;;;;-5.30;1.00;;;;;;5022067;28;19949;-76
2024/01/10 04:31:57;;;;;;;;;;;-5.30;1.00;;;;;;5035450;28;19911;-76
2024/01/10 04:34:55;;;;;;;;;;;-5.20;1.00;;;;;;5024247;28;20364;-76
2024/01/10 04:37:37;;;;;;;;;;;-5.20;1.00;;;;;;5027481;28;19916;-76
2024/01/10 04:40:03;;;;;;;;;;;-5.20;1.00;;;;;;5017938;28;19905;-76
2024/01/10 04:42:30;;;;;;;;;;;-5.30;1.00;;;;;;5025092;28;20388;-76
2024/01/10 04:45:31;;;;;;;;;;;-5.30;1.00;;;;;;5027918;28;19996;-76
2024/01/10 04:47:57;;;;;;;;;;;-5.30;1.00;;;;;;5026327;28;19912;-76
2024/01/10 04:50:22;;;;;;;;;;;-5.30;1.00;;;;;;5020416;28;19909;-75
2024/01/10 04:52:49;;;;;;;;;;;-5.30;1.00;;;;;;5019830;28;19914;-76
2024/01/10 04:55:15;;;;;;;;;;;-5.30;1.00;;;;;;5022849;28;19972;-75
2024/01/10 04:57:43;;;;;;;;;;;-5.20;1.00;;;;;;5019905;28;19917;-76
2024/01/10 05:00:09;;;;;;;;;;;-5.20;1.00;;;;;;5014624;28;19917;-76
2024/01/10 05:02:43;;;;;;;;;;;-5.20;1.00;;;;;;5024707;28;19916;-77
2024/01/10 05:05:23;;;;;;;;;;;-5.20;1.00;;;;;;5014460;28;20012;-77
2024/01/10 05:08:01;;;;;;;;;;;-5.20;1.00;;;;;;5013495;28;20280;-78
2024/01/10 05:10:37;;;;;;;;;;;-5.20;1.00;;;;;;5013672;28;20353;-78
2024/01/10 05:13:03;;;;;;;;;;;-5.20;1.00;;;;;;5024453;28;19906;-78
2024/01/10 05:15:28;;;;;;;;;;;-5.20;1.00;;;;;;5022548;28;19932;-76
2024/01/10 05:17:55;;;;;;;;;;;-5.10;1.00;;;;;;5026208;28;19916;-78
2024/01/10 05:20:37;;;;;;;;;;;-5.10;1.00;;;;;;5027175;28;19913;-79
2024/01/10 05:23:07;;;;;;;;;;;-5.10;1.00;;;;;;5018028;28;19914;-78
2024/01/10 05:25:33;;;;;;;;;;;-5.10;1.00;;;;;;5014082;28;19909;-78
2024/01/10 05:28:25;;;;;;;;;;;-5.00;1.00;;;;;;5014142;28;20008;-78
2024/01/10 05:30:55;;;;;;;;;;;-5.00;1.00;;;;;;5029982;28;19913;-76
2024/01/10 05:33:25;;;;;;;;;;;-5.00;1.00;;;;;;5015473;28;19945;-76
2024/01/10 05:35:51;;;;;;;;;;;-5.00;1.00;;;;;;5023945;28;19909;-76
2024/01/10 05:38:17;;;;;;;;;;;-5.00;1.00;;;;;;5016572;28;19959;-76
2024/01/10 05:40:55;;;;;;;;;;;-5.00;1.00;;;;;;5024993;28;19906;-76
2024/01/10 05:43:21;;;;;;;;;;;-5.00;1.00;;;;;;5025431;28;19909;-75
2024/01/10 05:45:47;;;;;;;;;;;-5.00;1.00;;;;;;5017515;28;19914;-77
2024/01/10 05:48:13;;;;;;;;;;;-4.90;1.00;;;;;;5017535;28;19905;-76
2024/01/10 05:50:43;;;;;;;;;;;-5.00;1.00;;;;;;5019773;28;19920;-76
2024/01/10 05:53:16;;;;;;;;;;;-5.00;1.00;;;;;;5025074;28;19913;-76
2024/01/10 05:55:42;;;;;;;;;;;-5.00;1.00;;;;;;5014118;28;20307;-76
2024/01/10 05:58:09;;;;;;;;;;;-5.10;1.00;;;;;;5022359;28;19913;-76
2024/01/10 06:00:35;;;;;;;;;;;-5.10;1.00;;;;;;5013939;28;20026;-76
2024/01/10 06:03:13;;;;;;;;;;;-5.10;1.00;;;;;;5020004;28;19943;-78
2024/01/10 06:05:43;;;;;;;;;;;-5.10;1.00;;;;;;5024484;28;19919;-78
2024/01/10 06:08:14;;;;;;;;;;;-5.10;1.00;;;;;;5024406;28;19916;-78
2024/01/10 06:10:53;;;;;;;;;;;-5.00;1.00;;;;;;5017322;28;19913;-78
2024/01/10 06:13:19;;;;;;;;;;;-5.00;1.00;;;;;;5016331;28;19913;-78
2024/01/10 06:15:50;;;;;;;;;;;-5.10;1.00;;;;;;5019499;28;19909;-78
2024/01/10 06:18:25;;;;;;;;;;;-5.00;1.00;;;;;;5018986;28;20020;-76
2024/01/10 06:20:55;;;;;;;;;;;-5.00;1.00;;;;;;5021008;28;19948;-76
2024/01/10 06:23:37;;;;;;;;;;;-5.10;1.00;;;;;;5031865;28;19916;-76
2024/01/10 06:26:03;;;;;;;;;;;-5.10;1.00;;;;;;5020387;28;19913;-76
2024/01/10 06:28:31;;;;;;;;;;;-5.10;1.00;;;;;;5032453;28;20414;-76
2024/01/10 06:30:57;;;;;;;;;;;-5.10;1.00;;;;;;5019105;28;19906;-76
2024/01/10 06:33:23;;;;;;;;;;;-5.20;1.00;;;;;;5021863;28;20016;-77
2024/01/10 06:35:55;;;;;;;;;;;-5.20;1.00;;;;;;5015900;28;19916;-78
2024/01/10 06:38:40;;;;;;;;;;;-5.20;1.00;;;;;;5027707;28;20364;-78
2024/01/10 06:41:16;;;;;;;;;;;-5.20;1.00;;;;;;5035287;28;19905;-78
2024/01/10 06:43:41;;;;;;;;;;;-5.20;1.00;;;;;;5024662;28;19905;-78
2024/01/10 06:46:13;;;;;;;;;;;-5.30;1.00;;;;;;5029253;28;20368;-78
2024/01/10 06:48:39;;;;;;;;;;;-5.30;1.00;;;;;;5030497;28;19964;-75
2024/01/10 06:51:12;;;;;;;;;;;-5.20;1.00;;;;;;5017294;28;19914;-76
2024/01/10 06:54:02;;;;;;;;;;;-5.20;1.00;;;;;;5035842;28;19916;-79
2024/01/10 06:56:37;;;;;;;;;;;-5.30;1.00;;;;;;5023320;28;19924;-74
2024/01/10 06:59:13;;;;;;;;;;;-5.20;1.00;;;;;;5022726;28;20400;-74
2024/01/10 07:01:52;;;;;;;;;;;-5.20;1.00;;;;;;5017463;28;19914;-78
2024/01/10 07:04:37;;;;;;;;;;;-5.10;1.00;;;;;;5021423;28;20002;-79
2024/01/10 07:07:08;;;;;;;;;;;-5.10;1.00;;;;;;5024664;28;19913;-78
2024/01/10 07:09:55;;;;;;;;;;;-5.10;1.00;;;;;;5023091;28;20349;-75
2024/01/10 07:12:25;;;;;;;;;;;-5.10;1.00;;;;;;5033806;28;19916;-78
2024/01/10 07:14:51;;;;;;;;;;;-5.10;1.00;;;;;;5026614;28;19912;-79
2024/01/10 07:17:25;;;;;;;;;;;-5.10;1.00;;;;;;5022744;28;20269;-77
2024/01/10 07:19:51;;;;;;;;;;;-5.00;1.00;;;;;;5026642;28;19920;-78
2024/01/10 07:22:17;;;;;;;;;;;-5.00;1.00;;;;;;5016406;28;20352;-77
2024/01/10 07:24:43;;;;;;;;;;;-5.00;1.00;;;;;;5036300;28;19909;-78
2024/01/10 07:27:31;;;;;;;;;;;-5.00;1.00;;;;;;5029585;28;19924;-79
2024/01/10 07:30:01;;;;;;;;;;;-4.90;1.00;;;;;;5020416;28;19909;-78
2024/01/10 07:32:31;;;;;;;;;;;-4.90;1.00;;;;;;5016415;28;20257;-76
2024/01/10 07:34:58;;;;;;;;;;;-4.80;1.00;;;;;;5017110;28;19980;-76
2024/01/10 07:37:38;;;;;;;;;;;-4.90;1.00;;;;;;5035855;28;20311;-76
2024/01/10 07:40:19;;;;;;;;;;;-4.80;1.00;;;;;;5032580;28;19962;-76
2024/01/10 07:42:49;;;;;;;;;;;-4.80;1.00;;;;;;5016572;28;19959;-76
2024/01/10 07:45:15;;;;;;;;;;;-4.80;1.00;;;;;;5017979;28;19916;-76
2024/01/10 07:48:01;;;;;;;;;;;-4.80;1.00;;;;;;5028899;28;19909;-76
2024/01/10 07:50:27;;;;;;;;;;;-4.80;1.00;;;;;;5036437;28;19917;-76
2024/01/10 07:52:53;;;;;;;;;;;-4.80;1.00;;;;;;5016656;28;19906;-76
2024/01/10 07:55:19;;;;;;;;;;;-4.70;1.00;;;;;;5016512;28;19913;-76
2024/01/10 07:58:01;;;;;;;;;;;-4.60;1.00;;;;;;5033033;28;19919;-77
2024/01/10 08:00:27;;;;;;;;;;;-4.50;1.00;;;;;;5021576;28;19913;-77
2024/01/10 08:02:55;;;;;;;;;;;-4.40;1.00;;;;;;5027230;28;19909;-78
2024/01/10 08:05:25;;;;;;;;;;;-4.40;1.00;;;;;;5024100;28;19916;-77
2024/01/10 08:07:51;;;;;;;;;;;-4.30;1.00;;;;;;5015382;28;19913;-76
2024/01/10 08:10:19;;;;;;;;;;;-4.30;1.00;;;;;;5032856;28;19905;-77
2024/01/10 08:12:45;;;;;;;;;;;-4.20;1.00;;;;;;5028921;28;19953;-80
2024/01/10 08:15:11;;;;;;;;;;;-4.10;1.00;;;;;;5028743;28;19905;-77
2024/01/10 08:17:39;;;;;;;;;;;-3.90;1.00;;;;;;5019226;28;20316;-78
2024/01/10 08:20:06;;;;;;;;;;;-3.90;1.00;;;;;;5020684;28;19913;-77
2024/01/10 08:22:31;;;;;;;;;;;-3.70;1.00;;;;;;5034045;28;19909;-79
2024/01/10 08:24:57;;;;;;;;;;;-3.60;1.00;;;;;;5046844;28;19909;-80
2024/01/10 08:30:49;;;;;;;;;;;-3.50;1.00;;;;;;5015412;28;19928;-75
2024/01/10 08:33:19;;;;;;;;;;;-3.20;1.00;;;;;;5024084;28;19917;-79
2024/01/10 08:36:02;;;;;;;;;;;-3.20;1.00;;;;;;5021883;28;19913;-79
2024/01/10 08:38:38;;;;;;;;;;;-3.10;1.00;;;;;;5017523;28;19909;-80
2024/01/10 08:44:07;;;;;;;;;;;-2.90;1.00;;;;;;5029385;28;19935;-79
2024/01/10 08:49:38;;;;;;;;;;;-2.70;1.00;;;;;;5021012;28;19955;-76
2024/01/10 08:52:25;;;;;;;;;;;-2.70;1.00;;;;;;5017826;28;20869;-77
2024/01/10 08:58:01;;;;;;;;;;;-2.50;1.00;;;;;;5016844;28;20040;-76
2024/01/10 09:00:32;;;;;;;;;;;-2.50;1.00;;;;;;5045086;28;19908;-76
2024/01/10 09:02:57;;;;;;;;;;;-2.50;1.00;;;;;;5031337;28;19909;-77
2024/01/10 09:05:32;;;;;;;;;;;-2.50;1.00;;;;;;5046666;28;19916;-76
2024/01/10 09:07:58;;;;;;;;;;;-2.50;1.00;;;;;;5040899;28;19920;-79
2024/01/10 09:10:27;;;;;;;;;;;-2.50;1.00;;;;;;5060285;28;19905;-78
2024/01/10 09:12:53;;;;;;;;;;;-2.50;1.00;;;;;;5047204;28;19908;-79
2024/01/10 09:15:19;;;;;;;;;;;-2.50;1.00;;;;;;5038003;28;19913;-76
2024/01/10 09:17:45;;;;;;;;;;;-2.50;1.00;;;;;;5044034;28;19909;-74
2024/01/10 09:20:11;;;;;;;;;;;-2.50;1.00;;;;;;5049029;28;19916;-74
2024/01/10 09:22:37;;;;;;;;;;;-2.40;1.00;;;;;;5051547;28;19974;-75
2024/01/10 09:25:08;;;;;;;;;;;-2.40;1.00;;;;;;5045048;28;20019;-76
2024/01/10 09:27:34;;;;;;;;;;;-2.30;1.00;;;;;;5046763;28;19960;-76
2024/01/10 09:30:02;;;;;;;;;;;-2.10;1.00;;;;;;5040944;28;19917;-75
2024/01/10 09:32:31;;;;;;;;;;;-2.00;1.00;;;;;;5042408;28;20309;-75
2024/01/10 09:34:58;;;;;;;;;;;-2.00;1.00;;;;;;5050779;28;19913;-78
2024/01/10 09:37:31;;;;;;;;;;;-1.90;1.00;;;;;;5042113;28;19967;-78
2024/01/10 09:40:08;;;;;;;;;;;-1.80;1.00;;;;;;5047599;28;20396;-78
2024/01/10 09:42:37;;;;;;;;;;;-1.70;1.00;;;;;;5043854;28;19905;-79
2024/01/10 09:45:15;;;;;;;;;;;-1.70;1.00;;;;;;5046820;28;20372;-79
2024/01/10 09:47:45;;;;;;;;;;;-1.70;1.00;;;;;;5049399;28;19994;-78
2024/01/10 09:50:14;;;;;;;;;;;-1.60;1.00;;;;;;5051404;28;19905;-75
2024/01/10 09:53:09;;;;;;;;;;;-1.60;1.00;;;;;;5044730;28;19904;-75
2024/01/10 09:55:38;;;;;;;;;;;-1.50;1.00;;;;;;5027402;28;19913;-75
2024/01/10 09:58:08;;;;;;;;;;;-1.40;1.00;;;;;;5020795;28;19942;-75
2024/01/10 10:00:49;;;;;;;;;;;-1.30;1.00;;;;;;5043974;28;19909;-76
2024/01/10 10:03:49;;;;;;;;;;;-1.30;1.00;;;;;;5029743;28;19909;-78
2024/01/10 10:06:25;;;;;;;;;;;-1.20;1.00;;;;;;5020317;28;19909;-78
2024/01/10 10:08:55;;;;;;;;;;;-1.10;1.00;;;;;;5022396;28;19913;-79
2024/01/10 10:11:31;;;;;;;;;;;-1.10;1.00;;;;;;5030053;28;19909;-79
2024/01/10 10:14:27;;;;;;;;;;;-1.00;1.00;;;;;;5019371;28;19915;-79
2024/01/10 10:17:22;;;;;;;;;;;-1.00;1.00;;;;;;4995182;28;20285;-78
2024/01/10 10:19:47;;;;;;;;;;;-0.90;1.00;;;;;;4965126;28;20500;-76
2024/01/10 10:22:13;;;;;;;;;;;-0.80;1.00;;;;;;4970568;28;19914;-75
2024/01/10 10:25:01;;;;;;;;;;;-0.80;1.00;;;;;;4975432;28;21056;-76
2024/01/10 10:27:27;;;;;;;;;;;-0.90;1.00;;;;;;4983077;28;19918;-75
2024/01/10 10:30:01;;;;;;;;;;;-0.80;1.00;;;;;;4973615;28;19917;-76
2024/01/10 10:32:31;;;;;;;;;;;-0.90;1.00;;;;;;4967752;28;19910;-75
2024/01/10 10:35:03;;;;;;;;;;;-0.90;1.00;;;;;;4975712;28;19910;-79
2024/01/10 10:37:52;;;;;;;;;;;-0.90;1.00;;;;;;4974504;28;19906;-78
2024/01/10 10:40:20;;;;;;;;;;;-0.80;1.00;;;;;;4974410;28;19910;-78
2024/01/10 10:42:54;;;;;;;;;;;-0.50;1.00;;;;;;4975551;28;19917;-79
2024/01/10 10:45:32;;;;;;;;;;;-0.40;1.00;;;;;;4969795;28;19906;-79
2024/01/10 10:48:02;;;;;;;;;;;-0.20;1.00;;;;;;4974032;28;20393;-79
2024/01/10 10:50:34;;;;;;;;;;;-0.20;1.00;;;;;;4974755;28;19906;-78
2024/01/10 10:53:03;;;;;;;;;;;-0.20;1.00;;;;;;4998477;28;20356;-80
2024/01/10 10:55:32;;;;;;;;;;;-0.20;1.00;;;;;;5039691;28;20554;-79
2024/01/10 10:58:14;;;;;;;;;;;-0.10;1.00;;;;;;5044136;28;19971;-78
2024/01/10 11:00:50;;;;;;;;;;;0.00;1.00;;;;;;5055766;28;19908;-79
2024/01/10 11:03:20;;;;;;;;;;;-0.10;1.00;;;;;;5050066;28;20272;-78
2024/01/10 11:05:55;;;;;;;;;;;-0.10;1.00;;;;;;5036904;28;19913;-76
2024/01/10 11:08:23;;;;;;;;;;;0.00;1.00;;;;;;5044550;28;20315;-76
2024/01/10 11:11:04;;;;;;;;;;;0.00;1.00;;;;;;5035062;28;19983;-76
2024/01/10 11:14:02;;;;;;;;;;;-0.10;1.00;;;;;;5043735;28;19916;-76
2024/01/10 11:16:43;;;;;;;;;;;-0.10;1.00;;;;;;5029899;28;20301;-74
2024/01/10 11:19:19;;;;;;;;;;;0.00;1.00;;;;;;5018993;28;20011;-88
2024/01/10 11:22:07;;;;;;;;;;;0.10;1.00;;;;;;5028285;28;20416;-75
2024/01/10 11:24:37;;;;;;;;;;;0.10;1.00;;;;;;5038510;28;19909;-77
2024/01/10 11:30:06;;;;;;;;;;;0.20;1.00;;;;;;5039577;28;19916;-73
2024/01/10 11:32:43;;;;;;;;;;;0.30;1.00;;;;;;5040808;28;19908;-74
2024/01/10 11:35:18;;;;;;;;;;;0.20;1.00;;;;;;5040951;28;19916;-77
2024/01/10 11:37:45;;;;;;;;;;;0.30;1.00;;;;;;4999818;28;20051;-74
2024/01/10 11:40:39;;;;;;;;;;;0.50;1.00;;;;;;5024999;28;19911;-86
2024/01/10 11:43:20;;;;;;;;;;;0.70;1.00;;;;;;5033384;28;19912;-78
2024/01/10 11:45:53;;;;;;;;;;;0.70;1.00;;;;;;5025308;28;20353;-79
2024/01/10 11:48:28;;;;;;;;;;;0.80;1.00;;;;;;5041335;28;19912;-78
2024/01/10 11:53:56;;;;;;;;;;;1.00;1.00;;;;;;5043206;28;19912;-82
2024/01/10 11:56:39;;;;;;;;;;;1.20;1.00;;;;;;5054844;28;19905;-81
2024/01/10 12:02:08;;;;;;;;;;;0.90;1.00;;;;;;5052693;28;19954;-78
2024/01/10 12:04:37;;;;;;;;;;;0.90;1.00;;;;;;5052424;28;19909;-73
2024/01/10 12:07:14;;;;;;;;;;;0.90;1.00;;;;;;5049019;28;19917;-78
2024/01/10 12:09:39;;;;;;;;;;;0.70;1.00;;;;;;5047388;28;19912;-76
2024/01/10 12:12:08;;;;;;;;;;;0.70;1.00;;;;;;5053893;28;19912;-82
2024/01/10 12:17:37;;;;;;;;;;;0.60;1.00;;;;;;5043557;28;20441;-85
2024/01/10 12:20:03;;;;;;;;;;;0.60;1.00;;;;;;5051707;28;19942;-80
2024/01/10 12:22:31;;;;;;;;;;;0.60;1.00;;;;;;5038736;28;19944;-80
2024/01/10 12:25:03;;;;;;;;;;;0.70;1.00;;;;;;5044861;28;19908;-80
2024/01/10 12:27:44;;;;;;;;;;;0.70;1.00;;;;;;5041342;28;19912;-80
2024/01/10 12:30:11;;;;;;;;;;;0.90;1.00;;;;;;5036291;28;19967;-81
2024/01/10 12:32:38;;;;;;;;;;;0.90;1.00;;;;;;5047591;28;19944;-77
2024/01/10 12:35:04;;;;;;;;;;;0.90;1.00;;;;;;5047891;28;19905;-78
2024/01/10 12:37:31;;;;;;;;;;;1.00;1.00;;;;;;5039965;28;19915;-73
2024/01/10 12:39:57;;;;;;;;;;;1.10;1.00;;;;;;5040142;28;20355;-74
2024/01/10 12:42:25;;;;;;;;;;;1.30;1.00;;;;;;5041580;28;19908;-74
2024/01/10 12:44:55;;;;;;;;;;;1.40;1.00;;;;;;5041212;28;19905;-74
2024/01/10 12:47:23;;;;;;;;;;;1.60;1.00;;;;;;5045051;28;19912;-73
2024/01/10 12:49:50;;;;;;;;;;;1.60;1.00;;;;;;5041326;28;20420;-74
2024/01/10 12:52:16;;;;;;;;;;;1.70;1.00;;;;;;5047171;28;19909;-77
2024/01/10 12:55:07;;;;;;;;;;;1.90;1.00;;;;;;5042003;28;19908;-75
2024/01/10 12:57:33;;;;;;;;;;;2.00;1.00;;;;;;5037128;28;20003;-78
2024/01/10 13:00:08;;;;;;;;;;;2.10;1.00;;;;;;5047361;28;20000;-77
2024/01/10 13:02:37;;;;;;;;;;;2.20;1.00;;;;;;5047766;28;19904;-83
2024/01/10 13:05:09;;;;;;;;;;;2.30;1.00;;;;;;5054273;28;19911;-78
2024/01/10 13:07:35;;;;;;;;;;;2.30;1.00;;;;;;5050278;28;20008;-78
2024/01/10 13:13:07;;;;;;;;;;;2.10;1.00;;;;;;5047027;28;19995;-78
2024/01/10 13:15:33;;;;;;;;;;;2.00;1.00;;;;;;5034582;28;19924;-75
2024/01/10 13:18:01;;;;;;;;;;;2.00;1.00;;;;;;5052947;28;19913;-74
2024/01/10 13:20:40;;;;;;;;;;;2.00;1.00;;;;;;5043758;28;19912;-74
2024/01/10 13:23:06;;;;;;;;;;;1.70;1.00;;;;;;5034515;28;20395;-74
2024/01/10 13:25:43;;;;;;;;;;;1.60;1.00;;;;;;5048028;28;19912;-74
2024/01/10 13:28:11;;;;;;;;;;;1.50;1.00;;;;;;5053425;28;19928;-74
2024/01/10 13:30:41;;;;;;;;;;;1.50;1.00;;;;;;5046329;28;19905;-74
2024/01/10 13:33:07;;;;;;;;;;;1.50;1.00;;;;;;5034351;28;20000;-74
2024/01/10 13:35:38;;;;;;;;;;;1.50;1.00;;;;;;5050992;28;20003;-74
2024/01/10 13:38:04;;;;;;;;;;;1.50;1.00;;;;;;5053819;28;20348;-73
2024/01/10 13:40:33;;;;;;;;;;;1.40;1.00;;;;;;5050417;28;20353;-74
2024/01/10 13:43:02;;;;;;;;;;;1.40;1.00;;;;;;5034492;28;20034;-74
2024/01/10 13:45:28;;;;;;;;;;;1.20;1.00;;;;;;5039348;28;19916;-74
2024/01/10 13:47:53;;;;;;;;;;;1.20;1.00;;;;;;5049957;28;20418;-74
2024/01/10 13:50:19;;;;;;;;;;;;;;;;;;5041939;28;19909;-74
2024/01/10 13:52:45;;;;;;;;;;;1.20;1.00;;;;;;5050554;28;19979;-74
2024/01/10 13:55:11;;;;;;;;;;;1.20;1.00;;;;;;5056320;28;19905;-75
2024/01/10 13:57:37;;;;;;;;;;;1.30;1.00;;;;;;5045961;28;19948;-74
2024/01/10 14:00:14;;;;;;;;;;;1.20;1.00;;;;;;5044813;28;19909;-74
2024/01/10 14:03:01;;;;;;;;;;;1.30;1.00;;;;;;5051216;28;19931;-74
2024/01/10 14:05:31;;;;;;;;;;;1.30;1.00;;;;;;5047708;28;19947;-74
2024/01/10 14:08:02;;;;;;;;;;;1.30;1.00;;;;;;5044575;28;19952;-75
2024/01/10 14:10:27;;;;;;;;;;;1.30;1.00;;;;;;5050751;28;19905;-75
2024/01/10 14:12:55;;;;;;;;;;;1.40;1.00;;;;;;5039961;28;19959;-75
2024/01/10 14:15:21;;;;;;;;;;;1.40;1.00;;;;;;5052749;28;19951;-75
2024/01/10 14:17:48;;;;;;;;;;;1.40;1.00;;;;;;5057336;28;19995;-75
2024/01/10 14:23:20;;;;;;;;;;;1.30;1.00;;;;;;5057029;28;19915;-75
2024/01/10 14:25:46;;;;;;;;;;;1.30;1.00;;;;;;5049908;28;19909;-75
2024/01/10 14:28:13;;;;;;;;;;;1.30;1.00;;;;;;5045338;28;19915;-75
2024/01/10 14:30:39;;;;;;;;;;;1.20;1.00;;;;;;5044397;28;19916;-76
2024/01/10 14:33:08;;;;;;;;;;;1.20;1.00;;;;;;5055749;28;20007;-75
2024/01/10 14:35:33;;;;;;;;;;;1.30;1.00;;;;;;5049590;28;19909;-74
2024/01/10 14:38:02;;;;;;;;;;;1.20;1.00;;;;;;5041158;28;19917;-75
2024/01/10 14:40:31;;;;;;;;;;;1.20;1.00;;;;;;5045440;28;19932;-75
2024/01/10 14:43:03;;;;;;;;;;;1.20;1.00;;;;;;5040231;28;19905;-75
2024/01/10 14:45:29;;;;;;;;;;;1.20;1.00;;;;;;5037015;28;20398;-75
2024/01/10 14:47:54;;;;;;;;;;;1.10;1.00;;;;;;5036713;28;19913;-75
2024/01/10 14:50:21;;;;;;;;;;;1.20;1.00;;;;;;5051826;28;19963;-75
2024/01/10 14:52:47;;;;;;;;;;;1.10;1.00;;;;;;5037778;28;20257;-74
2024/01/10 14:55:37;;;;;;;;;;;1.10;1.00;;;;;;5045120;28;19905;-74
2024/01/10 14:58:04;;;;;;;;;;;1.00;1.00;;;;;;5039848;28;19904;-74
2024/01/10 15:00:30;;;;;;;;;;;1.00;1.00;;;;;;5046299;28;20352;-74
2024/01/10 15:03:21;;;;;;;;;;;0.90;1.00;;;;;;5050325;28;19963;-74
2024/01/10 15:05:51;;;;;;;;;;;0.90;1.00;;;;;;5039772;28;19908;-74
2024/01/10 15:08:17;;;;;;;;;;;0.90;1.00;;;;;;5055258;28;19905;-74
2024/01/10 15:10:44;;;;;;;;;;;0.80;1.00;;;;;;5039998;28;19947;-74
2024/01/10 15:13:10;;;;;;;;;;;0.80;1.00;;;;;;5041711;28;19928;-74
2024/01/10 15:15:51;;;;;;;;;;;0.70;1.00;;;;;;5039669;28;20038;-75
2024/01/10 15:18:23;;;;;;;;;;;0.60;1.00;;;;;;5046970;28;19909;-75
2024/01/10 15:21:05;;;;;;;;;;;0.50;1.00;;;;;;5055242;28;19913;-74
2024/01/10 15:23:32;;;;;;;;;;;0.40;1.00;;;;;;5050473;28;20271;-74
2024/01/10 15:25:58;;;;;;;;;;;0.30;1.00;;;;;;5057865;28;20393;-74
2024/01/10 15:28:28;;;;;;;;;;;0.20;1.00;;;;;;5038587;28;20016;-73
2024/01/10 15:31:04;;;;;;;;;;;0.20;1.00;;;;;;5042461;28;19944;-73
2024/01/10 15:33:30;;;;;;;;;;;0.10;1.00;;;;;;5042282;28;20425;-73
2024/01/10 15:35:57;;;;;;;;;;;0.00;1.00;;;;;;5045916;28;19936;-73
2024/01/10 15:38:26;;;;;;;;;;;-0.10;1.00;;;;;;5044364;28;19952;-73
2024/01/10 15:40:53;;;;;;;;;;;-0.20;1.00;;;;;;5053417;28;20268;-74
2024/01/10 15:43:19;;;;;;;;;;;-0.30;1.00;;;;;;5054743;28;19913;-76
2024/01/10 15:45:44;;;;;;;;;;;-0.40;1.00;;;;;;5046743;28;19909;-73